Погода Руа дас Арворесна 2 недели

Парана, Бразилия

22 июля-03 августа
  • 22июля
    Сегодня
    +14°
    +30°
    Ясно и безоблачно
    ВремяПогодаТемператураВлажностьДавлениеВетер, м/сВероятность осадков
    00:00Ясно и безоблачно+19°C73 %738 мм3.1 м/с5 %
    03:00Ясно и безоблачно+18°C74 %738 мм2.5 м/с5 %
    06:00Ясно и безоблачно+15°C83 %738 мм2.3 м/с5 %
    09:00Ясно и безоблачно+18°C76 %740 мм2.3 м/с5 %
    12:00Ясно и безоблачно+25°C53 %741 мм1.4 м/с5 %
    15:00Ясно и безоблачно+29°C38 %739 мм0.8 м/с5 %
    18:00Ясно и безоблачно+26°C55 %738 мм0.9 м/с5 %
    21:00Ясно и безоблачно+21°C73 %739 мм2.6 м/с5 %
  • 23июля
    Вторник
    +16°
    +30°
    Ясно и безоблачно
    ВремяПогодаТемператураВлажностьДавлениеВетер, м/сВероятность осадков
    00:00Ясно и безоблачно+20°C71 %739 мм3.2 м/с5 %
    03:00Ясно и безоблачно+18°C79 %739 мм2.7 м/с5 %
    06:00Ясно и безоблачно+15°C81 %739 мм3.0 м/с5 %
    09:00Ясно и безоблачно+19°C73 %740 мм2.6 м/с5 %
    12:00Небольшая облачность+26°C49 %740 мм2.1 м/с5 %
    15:00Ясно и безоблачно+29°C35 %738 мм3.0 м/с5 %
    18:00Практически безоблачно+27°C54 %738 мм2.0 м/с5 %
    21:00Практически безоблачно+22°C54 %738 мм3.1 м/с5 %
  • 24июля
    Среда
    +16°
    +31°
    Небольшая облачность
    ВремяПогодаТемператураВлажностьДавлениеВетер, м/сВероятность осадков
    00:00Ясно и безоблачно+19°C66 %738 мм3.9 м/с5 %
    03:00Небольшая облачность+18°C60 %737 мм4.0 м/с5 %
    06:00Небольшая облачность+16°C59 %737 мм3.3 м/с5 %
    09:00Небольшая облачность+19°C57 %739 мм3.9 м/с5 %
    12:00Облачно с прояснениями+26°C43 %739 мм3.8 м/с5 %
    15:00Небольшая облачность+30°C38 %737 мм3.4 м/с5 %
    18:00Ясно и безоблачно+28°C55 %737 мм2.0 м/с5 %
    21:00Ясно и безоблачно+23°C58 %737 мм3.0 м/с5 %
  • 25июля
    Четверг
    +17°
    +32°
    Ясно и безоблачно
    ВремяПогодаТемператураВлажностьДавлениеВетер, м/сВероятность осадков
    00:00Ясно и безоблачно+21°C60 %738 мм2.7 м/с5 %
    03:00Ясно и безоблачно+19°C69 %737 мм2.1 м/с5 %
    06:00Ясно и безоблачно+17°C72 %737 мм2.3 м/с5 %
    09:00Ясно и безоблачно+20°C65 %738 мм2.1 м/с5 %
    12:00Ясно и безоблачно+28°C45 %738 мм2.4 м/с5 %
    15:00Ясно и безоблачно+31°C34 %736 мм2.3 м/с5 %
    18:00Ясно и безоблачно+29°C55 %735 мм1.7 м/с5 %
    21:00Практически безоблачно+24°C51 %735 мм2.8 м/с5 %
Мы используем cookies
Соглашаюсь